createdAt,value
2016-10-26T00:00:08.796Z,949.43
2016-10-26T00:01:08.771Z,949.32
2016-10-26T00:02:08.766Z,949.32
2016-10-26T00:03:08.776Z,949.22
2016-10-26T00:04:08.974Z,947.51
2016-10-26T00:05:09.593Z,946.67
2016-10-26T00:06:08.772Z,946.21
2016-10-26T00:07:08.786Z,945.07
2016-10-26T00:08:08.795Z,944.95
2016-10-26T00:09:08.773Z,945
2016-10-26T00:10:08.803Z,944.19
2016-10-26T00:11:08.781Z,944.33
2016-10-26T00:12:08.789Z,944.14
2016-10-26T00:13:08.789Z,943.94
2016-10-26T00:14:08.785Z,943.6
2016-10-26T00:15:08.840Z,943.82
2016-10-26T00:16:09.253Z,943.22
2016-10-26T00:17:08.867Z,942.37
2016-10-26T00:18:08.791Z,942.17
2016-10-26T00:19:08.785Z,941.76
2016-10-26T00:20:08.836Z,941.07
2016-10-26T00:21:08.785Z,940.97
2016-10-26T00:22:08.795Z,940.34
2016-10-26T00:23:08.782Z,940.2
2016-10-26T00:24:08.782Z,940.48
2016-10-26T00:25:08.805Z,939.85
2016-10-26T00:26:09.791Z,939.15
2016-10-26T00:27:08.808Z,938.17
2016-10-26T00:28:08.811Z,937.65
2016-10-26T00:29:08.795Z,937.26
2016-10-26T00:30:08.814Z,937.86
2016-10-26T00:31:09.126Z,937.37
2016-10-26T00:32:08.814Z,937.41
2016-10-26T00:33:08.793Z,936.78
2016-10-26T00:34:08.851Z,936.52
2016-10-26T00:35:09.266Z,936.5
2016-10-26T00:36:08.787Z,936.35
2016-10-26T00:37:08.802Z,936.4
2016-10-26T00:38:08.812Z,936.13
2016-10-26T00:39:08.805Z,935.23
2016-10-26T00:40:08.816Z,936.05
2016-10-26T00:41:09.170Z,936.28
2016-10-26T00:42:08.802Z,936.03
2016-10-26T00:43:08.809Z,936.31
2016-10-26T00:44:09.014Z,936.16
2016-10-26T00:45:08.837Z,936.44
2016-10-26T00:46:08.815Z,936.75
2016-10-26T00:47:09.847Z,937.07
2016-10-26T00:48:08.839Z,937.44
2016-10-26T00:49:08.819Z,937.41
2016-10-26T00:50:08.850Z,937.69
2016-10-26T00:51:08.817Z,937.8
2016-10-26T00:52:08.816Z,937.66
2016-10-26T00:53:08.818Z,937.79
2016-10-26T00:54:08.822Z,937.93
2016-10-26T00:55:08.831Z,937.82
2016-10-26T00:56:08.826Z,937.7
2016-10-26T00:57:08.812Z,937.81
2016-10-26T00:58:08.806Z,937.98
2016-10-26T00:59:08.848Z,938.16
2016-10-26T01:00:08.889Z,938.13
2016-10-26T01:01:08.900Z,937.88
2016-10-26T01:02:08.937Z,938.18
2016-10-26T01:03:08.979Z,937.7
2016-10-26T01:04:08.937Z,937.2
2016-10-26T01:05:08.893Z,936.58
2016-10-26T01:06:08.873Z,936.31
2016-10-26T01:07:08.900Z,936.28
2016-10-26T01:08:08.907Z,936.38
2016-10-26T01:09:08.873Z,936.64
2016-10-26T01:10:08.903Z,937.17
2016-10-26T01:11:09.073Z,936.86
2016-10-26T01:12:08.863Z,937.11
2016-10-26T01:13:08.880Z,936.81
2016-10-26T01:14:08.966Z,937.62
2016-10-26T01:15:08.922Z,936.8
2016-10-26T01:16:08.921Z,937.04
2016-10-26T01:17:08.890Z,937.02
2016-10-26T01:18:08.884Z,937.49
2016-10-26T01:19:08.904Z,937.32
2016-10-26T01:20:08.888Z,937.59
2016-10-26T01:21:08.940Z,937.87
2016-10-26T01:22:08.897Z,937.81
2016-10-26T01:23:09.056Z,937.95
2016-10-26T01:24:08.889Z,937.73
2016-10-26T01:25:08.918Z,938.49
2016-10-26T01:26:08.903Z,937.73
2016-10-26T01:27:08.857Z,938.36
2016-10-26T01:28:08.883Z,937.95
2016-10-26T01:29:08.912Z,938.17
2016-10-26T01:30:08.908Z,938.57
2016-10-26T01:31:08.891Z,937.83
2016-10-26T01:32:08.926Z,938.15
2016-10-26T01:33:08.911Z,938.16
2016-10-26T01:34:08.874Z,938.04
2016-10-26T01:35:08.922Z,938.07
2016-10-26T01:36:08.928Z,938.19
2016-10-26T01:37:08.893Z,938.87
2016-10-26T01:38:08.944Z,938.63
2016-10-26T01:39:08.890Z,938.87
2016-10-26T01:40:08.915Z,938.64
2016-10-26T01:41:08.935Z,938.54
2016-10-26T01:42:08.914Z,938.31
2016-10-26T01:43:08.975Z,938.53
2016-10-26T01:44:08.983Z,938.56
2016-10-26T01:45:08.908Z,938.3
2016-10-26T01:46:08.970Z,938.43
2016-10-26T01:47:08.957Z,938.16
2016-10-26T01:48:08.946Z,938.58
2016-10-26T01:49:08.947Z,938.79
2016-10-26T01:50:08.931Z,938.18
2016-10-26T01:51:08.989Z,938.57
2016-10-26T01:52:08.951Z,938.43
2016-10-26T01:53:08.933Z,938.11
2016-10-26T01:54:08.982Z,938.36
2016-10-26T01:55:09.001Z,938.2
2016-10-26T01:56:09.279Z,938.29
2016-10-26T01:57:08.935Z,938.28
2016-10-26T01:58:08.940Z,938.1
2016-10-26T01:59:08.969Z,938.23
2016-10-26T02:00:09.010Z,938.88
2016-10-26T02:01:08.984Z,939.26
2016-10-26T02:02:08.956Z,939.12
2016-10-26T02:03:08.911Z,939.35
2016-10-26T02:04:08.941Z,939.74
2016-10-26T02:05:08.960Z,940.06
2016-10-26T02:06:08.937Z,940.21
2016-10-26T02:07:08.950Z,940.06
2016-10-26T02:08:08.927Z,940.67
2016-10-26T02:09:08.952Z,940.54
2016-10-26T02:10:08.929Z,940.84
2016-10-26T02:11:09.261Z,940.94
2016-10-26T02:12:08.920Z,941.26
2016-10-26T02:13:08.946Z,941.39
2016-10-26T02:14:08.924Z,941.68
2016-10-26T02:15:08.969Z,941.67
2016-10-26T02:16:08.930Z,941.8
2016-10-26T02:17:08.988Z,941.7
2016-10-26T02:18:08.931Z,942.09
2016-10-26T02:19:08.930Z,942.07
2016-10-26T02:20:08.943Z,942.45
2016-10-26T02:21:08.962Z,942.35
2016-10-26T02:22:08.904Z,942.54
2016-10-26T02:23:08.908Z,941.51
2016-10-26T02:24:08.936Z,940.92
2016-10-26T02:25:08.930Z,940.12
2016-10-26T02:26:08.954Z,939.39
2016-10-26T02:27:08.901Z,939.34
2016-10-26T02:28:08.939Z,938.96
2016-10-26T02:29:08.965Z,938.33
2016-10-26T02:30:08.920Z,936.72
2016-10-26T02:31:08.947Z,936.62
2016-10-26T02:32:09.071Z,935.76
2016-10-26T02:33:08.895Z,935.65
2016-10-26T02:34:08.899Z,935.48
2016-10-26T02:35:09.129Z,935.46
2016-10-26T02:36:08.899Z,935.12
2016-10-26T02:37:08.902Z,935.37
2016-10-26T02:38:08.893Z,935.38
2016-10-26T02:39:08.922Z,935.38
2016-10-26T02:40:08.905Z,935.88
2016-10-26T02:41:08.899Z,935.23
2016-10-26T02:42:08.959Z,936.33
2016-10-26T02:43:08.899Z,936
2016-10-26T02:44:08.895Z,936.5
2016-10-26T02:45:08.933Z,936.93
2016-10-26T02:46:08.914Z,936.76
2016-10-26T02:47:08.897Z,937.03
2016-10-26T02:48:08.906Z,937.34
2016-10-26T02:49:08.919Z,937.7
2016-10-26T02:50:08.917Z,937.69
2016-10-26T02:51:08.892Z,937.71
2016-10-26T02:52:09.339Z,937.96
2016-10-26T02:53:08.905Z,937.4
2016-10-26T02:54:08.920Z,937.5
2016-10-26T02:55:08.934Z,937.03
2016-10-26T02:56:08.910Z,937.39
2016-10-26T02:57:08.921Z,937.39
2016-10-26T02:58:08.912Z,937.74
2016-10-26T02:59:08.943Z,937.61
2016-10-26T03:00:08.970Z,937.35
2016-10-26T03:01:08.925Z,937.34
2016-10-26T03:02:08.912Z,936.59
2016-10-26T03:03:08.906Z,936.45
2016-10-26T03:04:08.908Z,936.32
2016-10-26T03:05:08.932Z,936.2
2016-10-26T03:06:08.910Z,936.04
2016-10-26T03:07:08.942Z,935.28
2016-10-26T03:08:08.908Z,935.31
2016-10-26T03:09:08.913Z,934.29
2016-10-26T03:10:08.980Z,934.36
2016-10-26T03:11:08.925Z,933.33
2016-10-26T03:12:08.915Z,932.81
2016-10-26T03:13:08.932Z,932.07
2016-10-26T03:14:08.928Z,931.41
2016-10-26T03:15:09.923Z,931.46
2016-10-26T03:16:08.938Z,931.09
2016-10-26T03:17:08.915Z,931.3
2016-10-26T03:18:08.926Z,930.83
2016-10-26T03:19:08.918Z,930.92
2016-10-26T03:20:08.950Z,931.1
2016-10-26T03:21:08.960Z,930.35
2016-10-26T03:22:08.934Z,930.09
2016-10-26T03:23:08.944Z,930.08
2016-10-26T03:24:08.932Z,929.83
2016-10-26T03:25:08.937Z,930.25
2016-10-26T03:26:08.934Z,929.76
2016-10-26T03:27:08.932Z,930.01
2016-10-26T03:28:08.944Z,929.63
2016-10-26T03:29:08.937Z,929.63
2016-10-26T03:30:08.942Z,929.64
2016-10-26T03:31:08.935Z,929.27
2016-10-26T03:32:08.977Z,928.66
2016-10-26T03:33:08.940Z,927.81
2016-10-26T03:34:08.945Z,927.07
2016-10-26T03:35:08.935Z,926.82
2016-10-26T03:36:08.953Z,926.31
2016-10-26T03:37:08.958Z,925.32
2016-10-26T03:38:08.951Z,924.3
2016-10-26T03:39:08.965Z,924.04
2016-10-26T03:40:08.956Z,923.66
2016-10-26T03:41:08.953Z,923.51
2016-10-26T03:42:08.953Z,923.54
2016-10-26T03:43:08.961Z,923.93
2016-10-26T03:44:08.973Z,923.95
2016-10-26T03:45:08.943Z,924.05
2016-10-26T03:46:08.949Z,924.32
2016-10-26T03:47:08.960Z,924.04
2016-10-26T03:48:08.953Z,924.17
2016-10-26T03:49:08.954Z,923.88
2016-10-26T03:50:09.167Z,923.29
2016-10-26T03:51:08.940Z,922.69
2016-10-26T03:52:08.944Z,922.54
2016-10-26T03:53:08.972Z,921.72
2016-10-26T03:54:08.947Z,920.7
2016-10-26T03:55:08.961Z,919.42
2016-10-26T03:56:08.959Z,919.12
2016-10-26T03:57:08.957Z,918.9
2016-10-26T03:58:08.960Z,918.84
2016-10-26T03:59:08.957Z,918.48
2016-10-26T04:00:08.947Z,917.72
2016-10-26T04:01:08.965Z,917.64
2016-10-26T04:02:08.987Z,918.14
2016-10-26T04:03:08.955Z,918.48
2016-10-26T04:04:08.950Z,918.74
2016-10-26T04:05:08.952Z,918.73
2016-10-26T04:06:08.959Z,918.85
2016-10-26T04:07:08.949Z,918.85
2016-10-26T04:08:08.959Z,918.32
2016-10-26T04:09:08.968Z,918.12
2016-10-26T04:10:08.967Z,917.84
2016-10-26T04:11:09.023Z,917.74
2016-10-26T04:12:08.962Z,916.7
2016-10-26T04:13:08.976Z,916.79
2016-10-26T04:14:09.173Z,916.05
2016-10-26T04:15:08.970Z,915.02
2016-10-26T04:16:08.972Z,913.84
2016-10-26T04:17:09.180Z,913.06
2016-10-26T04:18:08.969Z,912.69
2016-10-26T04:19:08.976Z,912.29
2016-10-26T04:20:08.983Z,912.3
2016-10-26T04:21:08.973Z,911.97
2016-10-26T04:22:08.986Z,911.27
2016-10-26T04:23:08.991Z,910.77
2016-10-26T04:24:08.972Z,909.84
2016-10-26T04:25:08.973Z,910.41
2016-10-26T04:26:08.964Z,910.13
2016-10-26T04:27:08.972Z,911.07
2016-10-26T04:28:08.983Z,910.76
2016-10-26T04:29:09.002Z,911.29
2016-10-26T04:30:08.979Z,911.81
2016-10-26T04:31:08.998Z,912.37
2016-10-26T04:32:09.001Z,912.82
2016-10-26T04:33:08.988Z,913.09
2016-10-26T04:34:09.001Z,913.13
2016-10-26T04:35:09.186Z,913.67
2016-10-26T04:36:08.994Z,914.18
2016-10-26T04:37:09.002Z,914.67
2016-10-26T04:38:09.142Z,915.39
2016-10-26T04:39:08.983Z,914.64
2016-10-26T04:40:08.992Z,913.92
2016-10-26T04:41:08.985Z,912.57
2016-10-26T04:42:08.989Z,912.12
2016-10-26T04:43:08.980Z,911.21
2016-10-26T04:44:08.995Z,910.32
2016-10-26T04:45:09.002Z,909.78
2016-10-26T04:46:08.984Z,908.72
2016-10-26T04:47:09.000Z,908.36
2016-10-26T04:48:08.997Z,907.91
2016-10-26T04:49:08.994Z,907.32
2016-10-26T04:50:09.050Z,907.64
2016-10-26T04:51:08.993Z,906.97
2016-10-26T04:52:08.999Z,907.77
2016-10-26T04:53:09.002Z,907.47
2016-10-26T04:54:08.994Z,908.12
2016-10-26T04:55:09.018Z,909.47
2016-10-26T04:56:08.993Z,909.5
2016-10-26T04:57:09.016Z,909.37
2016-10-26T04:58:08.993Z,910
2016-10-26T04:59:09.002Z,910.16
2016-10-26T05:00:09.001Z,910.56
2016-10-26T05:01:09.033Z,911.22
2016-10-26T05:02:09.018Z,910.86
2016-10-26T05:03:09.010Z,910.87
2016-10-26T05:04:09.015Z,910.21
2016-10-26T05:05:09.006Z,909.88
2016-10-26T05:06:09.007Z,910.45
2016-10-26T05:07:09.029Z,910.41
2016-10-26T05:08:09.044Z,910.74
2016-10-26T05:09:09.023Z,911.11
2016-10-26T05:10:09.019Z,911.29
2016-10-26T05:11:09.022Z,911.43
2016-10-26T05:12:08.999Z,912.21
2016-10-26T05:13:09.025Z,912.3
2016-10-26T05:14:08.998Z,912.39
2016-10-26T05:15:09.004Z,912.13
2016-10-26T05:16:09.017Z,912.87
2016-10-26T05:17:09.013Z,912.69
2016-10-26T05:18:09.033Z,913.09
2016-10-26T05:19:09.021Z,913.33
2016-10-26T05:20:09.026Z,913.04
2016-10-26T05:21:09.029Z,913.73
2016-10-26T05:22:09.022Z,913.89
2016-10-26T05:23:09.030Z,914.53
2016-10-26T05:24:09.037Z,914.74
2016-10-26T05:25:09.026Z,915.77
2016-10-26T05:26:09.029Z,916.04
2016-10-26T05:27:09.043Z,916.31
2016-10-26T05:28:09.026Z,916.71
2016-10-26T05:29:09.039Z,917.12
2016-10-26T05:30:09.013Z,917
2016-10-26T05:31:09.028Z,917.54
2016-10-26T05:32:09.067Z,917.27
2016-10-26T05:33:09.042Z,918.02
2016-10-26T05:34:09.035Z,918.27
2016-10-26T05:35:09.042Z,918.27
2016-10-26T05:36:09.023Z,918.58
2016-10-26T05:37:09.036Z,918.36
2016-10-26T05:38:09.036Z,919.31
2016-10-26T05:39:09.036Z,919.31
2016-10-26T05:40:09.036Z,919.85
2016-10-26T05:41:09.062Z,920.01
2016-10-26T05:42:09.036Z,920.39
2016-10-26T05:43:09.032Z,920.62
2016-10-26T05:44:09.039Z,920.66
2016-10-26T05:45:09.062Z,921.03
2016-10-26T05:46:09.045Z,920.93
2016-10-26T05:47:09.044Z,920.65
2016-10-26T05:48:09.051Z,919.87
2016-10-26T05:49:09.046Z,919.93
2016-10-26T05:50:09.062Z,919.79
2016-10-26T05:51:09.070Z,920.36
2016-10-26T05:52:09.046Z,921.17
2016-10-26T05:53:09.064Z,920.67
2016-10-26T05:54:09.070Z,921.66
2016-10-26T05:55:09.070Z,921.46
2016-10-26T05:56:09.057Z,921.92
2016-10-26T05:57:09.054Z,921.8
2016-10-26T05:58:09.069Z,921.78
2016-10-26T05:59:09.058Z,921.91
2016-10-26T06:00:09.044Z,922.05
2016-10-26T06:01:09.048Z,922.56
2016-10-26T06:02:09.059Z,922.47
2016-10-26T06:03:09.082Z,922.73
2016-10-26T06:04:09.073Z,922.99
2016-10-26T06:05:09.057Z,922.99
2016-10-26T06:06:09.064Z,923.49
2016-10-26T06:07:09.059Z,923.62
2016-10-26T06:08:09.086Z,923.84
2016-10-26T06:09:09.073Z,924.65
2016-10-26T06:10:09.066Z,924.74
2016-10-26T06:11:09.066Z,925.29
2016-10-26T06:12:09.064Z,924.76
2016-10-26T06:13:09.063Z,924.81
2016-10-26T06:14:09.057Z,925.06
2016-10-26T06:15:09.053Z,925.46
2016-10-26T06:16:09.062Z,926.08
2016-10-26T06:17:09.047Z,926.48
2016-10-26T06:18:09.117Z,927.01
2016-10-26T06:19:09.067Z,927.79
2016-10-26T06:20:09.072Z,928.73
2016-10-26T06:21:09.095Z,928.65
2016-10-26T06:22:09.063Z,929.36
2016-10-26T06:23:09.073Z,929.63
2016-10-26T06:24:09.065Z,930.09
2016-10-26T06:25:09.057Z,929.97
2016-10-26T06:26:09.074Z,930.13
2016-10-26T06:27:09.083Z,930.21
2016-10-26T06:28:09.060Z,930.87
2016-10-26T06:29:09.082Z,931.05
2016-10-26T06:30:09.063Z,931.42
2016-10-26T06:31:09.065Z,931.38
2016-10-26T06:32:09.060Z,931.91
2016-10-26T06:33:09.076Z,931.77
2016-10-26T06:34:09.070Z,931.13
2016-10-26T06:35:09.093Z,930.01
2016-10-26T06:36:09.071Z,929.25
2016-10-26T06:37:09.079Z,929.11
2016-10-26T06:38:09.086Z,929.59
2016-10-26T06:39:09.080Z,930.08
2016-10-26T06:40:09.088Z,930.87
2016-10-26T06:41:09.087Z,931.85
2016-10-26T06:42:09.115Z,932.21
2016-10-26T06:43:09.108Z,933.76
2016-10-26T06:44:09.105Z,934.65
2016-10-26T06:45:09.096Z,936.16
2016-10-26T06:46:09.087Z,937.18
2016-10-26T06:47:09.105Z,937.77
2016-10-26T06:48:09.098Z,938.26
2016-10-26T06:49:09.089Z,938.94
2016-10-26T06:50:09.096Z,939.92
2016-10-26T06:51:09.088Z,941.5
2016-10-26T06:52:09.102Z,943.04
2016-10-26T06:53:09.089Z,943.48
2016-10-26T06:54:09.114Z,944.7
2016-10-26T06:55:09.092Z,944.85
2016-10-26T06:56:09.094Z,945.57
2016-10-26T06:57:09.097Z,945.91
2016-10-26T06:58:09.138Z,946.8
2016-10-26T06:59:09.189Z,946.87
2016-10-26T07:00:09.087Z,947.59
2016-10-26T07:01:09.103Z,947.84
2016-10-26T07:02:09.141Z,948.19
2016-10-26T07:03:09.089Z,948.54
2016-10-26T07:04:09.121Z,948.74
2016-10-26T07:05:09.113Z,949.65
2016-10-26T07:06:09.105Z,950.58
2016-10-26T07:07:09.127Z,951.87
2016-10-26T07:08:14.786Z,953.13
2016-10-26T07:09:09.122Z,954.02
2016-10-26T07:10:09.255Z,955.36
2016-10-26T07:11:09.105Z,956.54
2016-10-26T07:12:09.124Z,957.84
2016-10-26T07:13:09.124Z,959.15
2016-10-26T07:14:09.147Z,960.79
2016-10-26T07:15:09.105Z,961.97
2016-10-26T07:16:09.110Z,963.4
2016-10-26T07:17:09.131Z,964.45
2016-10-26T07:18:09.116Z,966.1
2016-10-26T07:19:09.239Z,967.08
2016-10-26T07:20:09.122Z,968.58
2016-10-26T07:21:09.127Z,970.4
2016-10-26T07:22:09.138Z,972.19
2016-10-26T07:23:09.127Z,973.93
2016-10-26T07:24:09.128Z,974.74
2016-10-26T07:25:09.118Z,975.87
2016-10-26T07:26:09.122Z,977.05
2016-10-26T07:27:09.115Z,978.31
2016-10-26T07:28:09.106Z,979.09
2016-10-26T07:29:09.124Z,979.92
2016-10-26T07:30:09.107Z,980.36
2016-10-26T07:31:09.487Z,980.96
2016-10-26T07:32:09.142Z,980.94
2016-10-26T07:33:09.109Z,981.25
2016-10-26T07:34:09.129Z,981.79
2016-10-26T07:35:09.285Z,982.55
2016-10-26T07:36:09.146Z,982.98
2016-10-26T07:37:09.138Z,983.76
2016-10-26T07:38:09.131Z,984.48
2016-10-26T07:39:09.120Z,984.23
2016-10-26T07:40:09.137Z,984.31
2016-10-26T07:41:09.150Z,984.29
2016-10-26T07:42:09.133Z,984.38
2016-10-26T07:43:09.121Z,984.76
2016-10-26T07:44:09.138Z,984.64
2016-10-26T07:45:09.127Z,984.86
2016-10-26T07:46:09.131Z,984.87
2016-10-26T07:47:09.137Z,984.75
2016-10-26T07:48:09.136Z,985.53
2016-10-26T07:49:09.155Z,985.88
2016-10-26T07:50:09.201Z,986.68
2016-10-26T07:51:09.139Z,987.57
2016-10-26T07:52:09.141Z,988.64
2016-10-26T07:53:09.137Z,989.98
2016-10-26T07:54:09.331Z,991.31
2016-10-26T07:55:09.173Z,992.56
2016-10-26T07:56:09.137Z,993.73
2016-10-26T07:57:09.146Z,995.26
2016-10-26T07:58:09.152Z,996.81
2016-10-26T07:59:09.147Z,998.15
2016-10-26T08:00:09.153Z,999.78
2016-10-26T08:01:09.139Z,1001.21
2016-10-26T08:02:09.144Z,1003.82
2016-10-26T08:03:09.145Z,1006.91
2016-10-26T08:04:09.134Z,1009.5
2016-10-26T08:05:09.156Z,1012.45
2016-10-26T08:06:09.148Z,1015.51
2016-10-26T08:07:09.168Z,1018.81
2016-10-26T08:08:09.156Z,1021.54
2016-10-26T08:09:09.156Z,1025.27
2016-10-26T08:10:09.172Z,1028.9
2016-10-26T08:11:09.155Z,1032.57
2016-10-26T08:12:09.159Z,1035.68
2016-10-26T08:13:09.158Z,1038.84
2016-10-26T08:14:09.158Z,1041.48
2016-10-26T08:15:09.252Z,1044.14
2016-10-26T08:16:09.187Z,1046.34
2016-10-26T08:17:10.217Z,1048.82
2016-10-26T08:18:09.145Z,1050.85
2016-10-26T08:19:09.164Z,1052.9
2016-10-26T08:20:09.172Z,1054.78
2016-10-26T08:21:09.182Z,1056.46
2016-10-26T08:22:09.171Z,1058.32
2016-10-26T08:23:09.344Z,1059.72
2016-10-26T08:24:09.183Z,1060.68
2016-10-26T08:25:09.175Z,1061.62
2016-10-26T08:26:09.189Z,1062.18
2016-10-26T08:27:09.152Z,1062.17
2016-10-26T08:28:09.164Z,1062.77
2016-10-26T08:29:09.219Z,1062.95
2016-10-26T08:30:09.378Z,1063.74
2016-10-26T08:31:09.249Z,1063.95
2016-10-26T08:32:09.168Z,1063.45
2016-10-26T08:33:09.177Z,1062.93
2016-10-26T08:34:09.190Z,1061.95
2016-10-26T08:35:09.163Z,1061.9
2016-10-26T08:36:09.210Z,1061.64
2016-10-26T08:37:09.177Z,1061.46
2016-10-26T08:38:09.174Z,1061.81
2016-10-26T08:39:09.184Z,1062.04
2016-10-26T08:40:09.193Z,1062.62
2016-10-26T08:41:09.199Z,1063.73
2016-10-26T08:42:09.164Z,1064.41
2016-10-26T08:43:09.242Z,1065.46
2016-10-26T08:44:09.177Z,1066.67
2016-10-26T08:45:09.184Z,1067.8
2016-10-26T08:46:09.219Z,1069.01
2016-10-26T08:47:09.245Z,1069.88
2016-10-26T08:48:09.222Z,1070.81
2016-10-26T08:49:09.197Z,1071.59
2016-10-26T08:50:09.183Z,1072.34
2016-10-26T08:51:09.193Z,1073.05
2016-10-26T08:52:09.183Z,1074.18
2016-10-26T08:53:09.278Z,1075.56
2016-10-26T08:54:09.340Z,1077.47
2016-10-26T08:55:09.209Z,1079.33
2016-10-26T08:56:09.340Z,1080.82
2016-10-26T08:57:09.193Z,1081.96
2016-10-26T08:58:09.373Z,1082.42
2016-10-26T08:59:09.895Z,1082.65
2016-10-26T09:00:09.840Z,1082.82
2016-10-26T09:01:11.930Z,1082.68
2016-10-26T09:02:09.958Z,1082.8
2016-10-26T09:03:09.663Z,1083.01
2016-10-26T09:04:09.794Z,1083.96
2016-10-26T09:05:11.737Z,1085.64
2016-10-26T09:06:09.772Z,1086.94
2016-10-26T09:07:10.950Z,1088.99
2016-10-26T09:08:09.212Z,1090.5
2016-10-26T09:09:09.213Z,1092.36
2016-10-26T09:10:09.220Z,1094.48
2016-10-26T09:11:09.257Z,1097.02
2016-10-26T09:12:09.218Z,1098.77
2016-10-26T09:13:09.232Z,1101.16
2016-10-26T09:14:09.359Z,1102.24
2016-10-26T09:15:09.254Z,1104.18
2016-10-26T09:16:09.242Z,1106.39
2016-10-26T09:17:09.333Z,1107.81
2016-10-26T09:18:09.638Z,1109.38
2016-10-26T09:19:09.273Z,1110.18
2016-10-26T09:20:09.234Z,1110.85
2016-10-26T09:21:09.249Z,1110.89
2016-10-26T09:22:09.306Z,1110.96
2016-10-26T09:23:09.347Z,1111.3
2016-10-26T09:24:09.301Z,1111.78
2016-10-26T09:25:09.234Z,1113.06
2016-10-26T09:26:09.333Z,1113.85
2016-10-26T09:27:09.309Z,1114.97
2016-10-26T09:28:09.919Z,1116.28
2016-10-26T09:29:09.263Z,1118
2016-10-26T09:30:09.341Z,1120.17
2016-10-26T09:31:09.621Z,1121.3
2016-10-26T09:32:09.439Z,1122.24
2016-10-26T09:33:09.325Z,1121.9
2016-10-26T09:34:09.317Z,1121.38
2016-10-26T09:35:09.391Z,1120.98
2016-10-26T09:36:09.295Z,1120.23
2016-10-26T09:37:09.314Z,1119.85
2016-10-26T09:38:09.256Z,1119.28
2016-10-26T09:39:09.343Z,1118.99
2016-10-26T09:40:09.330Z,1118.23
2016-10-26T09:41:09.301Z,1117.25
2016-10-26T09:42:09.465Z,1116.55
2016-10-26T09:43:09.240Z,1116.44
2016-10-26T09:44:09.264Z,1116.94
2016-10-26T09:45:09.238Z,1117.6
2016-10-26T09:46:09.459Z,1118.37
2016-10-26T09:47:09.496Z,1118.48
2016-10-26T09:48:09.322Z,1118.54
2016-10-26T09:49:10.319Z,1118.54
2016-10-26T09:50:09.638Z,1118.39
2016-10-26T09:51:09.288Z,1118.08
2016-10-26T09:52:09.238Z,1118.3
2016-10-26T09:53:09.243Z,1118.62
2016-10-26T09:54:09.336Z,1119.47
2016-10-26T09:55:09.253Z,1120.38
2016-10-26T09:56:09.238Z,1120.89
2016-10-26T09:57:09.253Z,1121.47
2016-10-26T09:58:09.254Z,1121.97
2016-10-26T09:59:09.231Z,1121.47
2016-10-26T10:00:09.280Z,1120.93
2016-10-26T10:01:09.260Z,1120.41
2016-10-26T10:02:09.249Z,1120.92
2016-10-26T10:03:09.256Z,1121.43
2016-10-26T10:04:09.262Z,1122.05
2016-10-26T10:05:09.256Z,1122.39
2016-10-26T10:06:09.263Z,1122.41
2016-10-26T10:07:09.240Z,1120.61
2016-10-26T10:08:09.263Z,1119.19
2016-10-26T10:09:09.259Z,1118.06
2016-10-26T10:10:09.269Z,1118.05
2016-10-26T10:11:09.262Z,1119.21
2016-10-26T10:12:09.265Z,1121.27
2016-10-26T10:13:09.262Z,1122.84
2016-10-26T10:14:09.276Z,1124.54
2016-10-26T10:15:09.265Z,1125.85
2016-10-26T10:16:09.260Z,1126.68
2016-10-26T10:17:09.269Z,1127.63
2016-10-26T10:18:09.279Z,1128.8
2016-10-26T10:19:09.279Z,1130.19
2016-10-26T10:20:09.271Z,1131.74
2016-10-26T10:21:09.273Z,1133.32
2016-10-26T10:22:09.271Z,1133.83
2016-10-26T10:23:09.268Z,1134.47
2016-10-26T10:24:09.250Z,1135.39
2016-10-26T10:25:09.258Z,1136.15
2016-10-26T10:26:09.274Z,1137.23
2016-10-26T10:27:09.284Z,1138.27
2016-10-26T10:28:09.261Z,1139.17
2016-10-26T10:29:09.253Z,1139.63
2016-10-26T10:30:09.275Z,1139.81
2016-10-26T10:31:09.253Z,1140.94
2016-10-26T10:32:09.399Z,1141.81
2016-10-26T10:33:09.264Z,1142.67
2016-10-26T10:34:09.266Z,1143.36
2016-10-26T10:35:09.264Z,1144.26
2016-10-26T10:36:09.275Z,1145.03
2016-10-26T10:37:09.274Z,1145.91
2016-10-26T10:38:09.301Z,1146.43
2016-10-26T10:39:09.261Z,1147.31
2016-10-26T10:40:09.288Z,1148.53
2016-10-26T10:41:09.308Z,1149.77
2016-10-26T10:42:09.339Z,1151.22
2016-10-26T10:43:09.274Z,1152.26
2016-10-26T10:44:09.300Z,1152.62
2016-10-26T10:45:09.319Z,1152.99
2016-10-26T10:46:09.292Z,1152.89
2016-10-26T10:47:09.276Z,1153.62
2016-10-26T10:48:09.341Z,1154.77
2016-10-26T10:49:09.320Z,1156
2016-10-26T10:50:09.288Z,1157.27
2016-10-26T10:51:09.287Z,1158.22
2016-10-26T10:52:09.305Z,1159.49
2016-10-26T10:53:09.281Z,1160.61
2016-10-26T10:54:09.295Z,1161.47
2016-10-26T10:55:09.303Z,1162.27
2016-10-26T10:56:09.322Z,1163.21
2016-10-26T10:57:09.291Z,1163.87
2016-10-26T10:58:09.297Z,1164.4
2016-10-26T10:59:09.285Z,1165.12
2016-10-26T11:00:09.288Z,1165.48
2016-10-26T11:01:09.301Z,1165.73
2016-10-26T11:02:09.286Z,1165.81
2016-10-26T11:03:09.339Z,1165.66
2016-10-26T11:04:09.301Z,1165.56
2016-10-26T11:05:09.304Z,1165.42
2016-10-26T11:06:09.303Z,1165.12
2016-10-26T11:07:09.383Z,1164.65
2016-10-26T11:08:09.319Z,1163.88
2016-10-26T11:09:09.322Z,1163.32
2016-10-26T11:10:09.345Z,1162.72
2016-10-26T11:11:09.972Z,1161.88
2016-10-26T11:12:09.326Z,1160.96
2016-10-26T11:13:09.314Z,1160.09
2016-10-26T11:14:09.332Z,1159.4
2016-10-26T11:15:09.313Z,1158.47
2016-10-26T11:16:09.298Z,1157.45
2016-10-26T11:17:09.416Z,1156.29
2016-10-26T11:18:09.346Z,1154.88
2016-10-26T11:19:09.328Z,1153.84
2016-10-26T11:20:09.315Z,1153.15
2016-10-26T11:21:09.374Z,1152.39
2016-10-26T11:22:09.328Z,1151.86
2016-10-26T11:23:09.321Z,1151.79
2016-10-26T11:24:10.056Z,1151.83
2016-10-26T11:25:09.384Z,1151.93
2016-10-26T11:26:09.316Z,1152.04
2016-10-26T11:27:09.328Z,1151.9
2016-10-26T11:28:09.321Z,1152.06
2016-10-26T11:29:09.435Z,1151.92
2016-10-26T11:30:09.340Z,1151.73
2016-10-26T11:31:10.320Z,1151.05
2016-10-26T11:32:09.346Z,1150.79
2016-10-26T11:33:09.342Z,1150.43
2016-10-26T11:34:09.339Z,1150.79
2016-10-26T11:35:09.462Z,1151.83
2016-10-26T11:36:09.361Z,1153.08
2016-10-26T11:37:09.346Z,1154.42
2016-10-26T11:38:09.419Z,1155.15
2016-10-26T11:39:09.388Z,1155.95
2016-10-26T11:40:09.381Z,1156.6
2016-10-26T11:41:09.354Z,1156.85
2016-10-26T11:42:09.362Z,1156.45
2016-10-26T11:43:09.340Z,1155.88
2016-10-26T11:44:09.331Z,1155.52
2016-10-26T11:45:09.385Z,1155.19
2016-10-26T11:46:09.344Z,1155.36
2016-10-26T11:47:09.338Z,1155.25
2016-10-26T11:48:09.382Z,1155.29
2016-10-26T11:49:09.346Z,1155.61
2016-10-26T11:50:09.359Z,1156.58
2016-10-26T11:51:09.364Z,1157.85
2016-10-26T11:52:10.023Z,1159.06
2016-10-26T11:53:09.363Z,1160.33
2016-10-26T11:54:09.356Z,1161.48
2016-10-26T11:55:09.499Z,1162
2016-10-26T11:56:09.350Z,1162.61
2016-10-26T11:57:09.345Z,1162.45
2016-10-26T11:58:09.356Z,1162.18
2016-10-26T11:59:09.430Z,1161.72
2016-10-26T12:00:09.344Z,1161.44
2016-10-26T12:01:09.347Z,1161
2016-10-26T12:02:09.360Z,1160.61
2016-10-26T12:03:09.379Z,1160.02
2016-10-26T12:04:09.351Z,1159.44
2016-10-26T12:05:09.375Z,1158.81
2016-10-26T12:06:09.412Z,1157.91
2016-10-26T12:07:09.356Z,1157.09
2016-10-26T12:08:09.362Z,1156.3
2016-10-26T12:09:09.380Z,1155.42
2016-10-26T12:10:09.373Z,1154.35
2016-10-26T12:11:09.365Z,1153.29
2016-10-26T12:12:09.344Z,1151.87
2016-10-26T12:13:09.398Z,1150.23
2016-10-26T12:14:09.359Z,1148.75
2016-10-26T12:15:09.451Z,1147.45
2016-10-26T12:16:09.370Z,1146.14
2016-10-26T12:17:09.350Z,1145.31
2016-10-26T12:18:09.369Z,1144.24
2016-10-26T12:19:09.360Z,1143.51
2016-10-26T12:20:09.401Z,1142.58
2016-10-26T12:21:09.359Z,1141.66
2016-10-26T12:22:09.398Z,1141.09